MAPA DE AEROPUERTO

INFORMACIÓN METAR y TAF


Deprecated: The each() function is deprecated. This message will be suppressed on further calls in /home/customer/www/clickair-va.com/public_html/VAM/vam/helpers/get_metar.php on line 20
METAR FOR VTBD
ADDS - METARS form results

(0711 UTC 13 January 2023)
Data provider http://aviationweather.gov/metar/data/
 
METAR text: VTBD 130700Z 35003KT 300V040 9999 FEW020 SCT040 32/23 Q1010 NOSIG
Conditions at: VTBD (BANGKOK/DON MUAN, TH) observed 0700 UTC 13 January 2023
Temperature: 32.0°C (90°F)
Dewpoint: 23.0°C (73°F) [RH = 59%]
Pressure (altimeter): 29.82 inches Hg (1010.0 mb)
Winds: from the N (350 degrees) at 3 MPH (3 knots; 1.5 m/s)
Visibility: 6 or more miles (10+ km)
Ceiling: at least 12,000 feet AGL
Clouds: few clouds at 2000 feet AGL
scattered clouds at 4000 feet AGL
Weather: no significant weather observed at this time

METAR text: VTBD 130630Z 20004KT 140V230 9999 FEW020 SCT035 32/22 Q1011 NOSIG
Conditions at: VTBD (BANGKOK/DON MUAN, TH) observed 0630 UTC 13 January 2023
Temperature: 32.0°C (90°F)
Dewpoint: 22.0°C (72°F) [RH = 56%]
Pressure (altimeter): 29.85 inches Hg (1011.0 mb)
Winds: from the SSW (200 degrees) at 5 MPH (4 knots; 2.1 m/s)
Visibility: 6 or more miles (10+ km)
Ceiling: at least 12,000 feet AGL
Clouds: few clouds at 2000 feet AGL
scattered clouds at 3500 feet AGL
Weather: no significant weather observed at this time

Forecast for: VTBD (BANGKOK/DON MUAN, TH)
Text: TAF VTBD 130500Z 1306/1412 18005KT 8000 FEW020
Forecast period: 0600 to 1800 UTC 13 January 2023
Forecast type: FROM: standard forecast or significant change
Winds: from the S (180 degrees) at 6 MPH (5 knots; 2.6 m/s)
Visibility: 5 miles (8 km)
Ceiling: at least 12,000 feet AGL
Clouds: few clouds at 2000 feet AGL
Weather: no significant weather forecast for this period
Text: BECMG 1318/1320 12005KT 3000 BR
Forecast period: 1800 UTC 13 January 2023 to 0100 UTC 14 January 2023
Forecast type: BECOMING: Conditions expected to become as follows by 2000 UTC 13 January 2023
Winds: from the ESE (120 degrees) at 6 MPH (5 knots; 2.6 m/s)
Visibility: 1.86 miles (2.99 km)
Ceiling: at least 12,000 feet AGL
Clouds: few clouds at 2000 feet AGL
Weather: BR  (mist)
Text: BECMG 1401/1403 18005KT 8000 NSW
Forecast period: 0100 to 1200 UTC 14 January 2023
Forecast type: BECOMING: Conditions expected to become as follows by 0300 UTC 14 January 2023
Winds: from the S (180 degrees) at 6 MPH (5 knots; 2.6 m/s)
Visibility: 5 miles (8 km)
Ceiling: at least 12,000 feet AGL
Clouds: few clouds at 2000 feet AGL
Weather: NSW  (no significant weather)